createdAt,value
2018-04-27T00:00:41.085Z,4.00
2018-04-27T00:01:41.103Z,4.00
2018-04-27T00:02:41.125Z,4.00
2018-04-27T00:03:41.134Z,4.00
2018-04-27T00:04:41.156Z,4.00
2018-04-27T00:05:41.221Z,4.00
2018-04-27T00:06:41.191Z,4.00
2018-04-27T00:07:41.207Z,4.00
2018-04-27T00:08:41.223Z,4.00
2018-04-27T00:09:41.243Z,4.00
2018-04-27T00:10:41.258Z,4.00
2018-04-27T00:11:41.294Z,4.00
2018-04-27T00:12:41.288Z,4.00
2018-04-27T00:13:41.311Z,4.00
2018-04-27T00:14:41.330Z,4.00
2018-04-27T00:15:41.341Z,4.00
2018-04-27T00:16:41.362Z,4.00
2018-04-27T00:17:41.378Z,0.00
2018-04-27T00:18:41.392Z,4.00
2018-04-27T00:19:41.415Z,4.00
2018-04-27T00:20:41.425Z,4.00
2018-04-27T00:21:41.448Z,4.00
2018-04-27T00:22:41.467Z,4.00
2018-04-27T00:23:41.483Z,4.00
2018-04-27T00:24:41.494Z,4.00
2018-04-27T00:25:41.515Z,4.00
2018-04-27T00:26:41.530Z,0.00
2018-04-27T00:27:41.551Z,4.00
2018-04-27T00:28:41.593Z,4.00
2018-04-27T00:29:41.593Z,4.00
2018-04-27T00:30:41.603Z,4.00
2018-04-27T00:31:41.620Z,4.00
2018-04-27T00:32:41.636Z,4.00
2018-04-27T00:33:41.657Z,4.00
2018-04-27T00:34:41.676Z,4.00
2018-04-27T00:35:41.690Z,4.00
2018-04-27T00:36:41.710Z,4.00
2018-04-27T00:37:41.726Z,4.00
2018-04-27T00:38:41.744Z,4.00
2018-04-27T00:39:41.758Z,4.00
2018-04-27T00:40:41.780Z,4.00
2018-04-27T00:41:41.848Z,4.00
2018-04-27T00:42:41.811Z,4.00
2018-04-27T00:43:41.833Z,4.00
2018-04-27T00:44:41.846Z,4.00
2018-04-27T00:45:41.860Z,4.00
2018-04-27T00:46:41.879Z,4.00
2018-04-27T00:47:41.935Z,4.00
2018-04-27T00:48:41.914Z,4.00
2018-04-27T00:49:41.943Z,4.00
2018-04-27T00:50:41.955Z,4.00
2018-04-27T00:51:41.969Z,4.00
2018-04-27T00:52:41.988Z,4.00
2018-04-27T00:53:42.140Z,4.00
2018-04-27T00:54:42.025Z,4.00
2018-04-27T00:55:42.036Z,4.00
2018-04-27T00:56:42.056Z,4.00
2018-04-27T00:57:42.077Z,4.00
2018-04-27T00:58:42.090Z,4.00
2018-04-27T00:59:42.175Z,4.00
2018-04-27T01:00:42.134Z,4.00
2018-04-27T01:01:42.148Z,4.00
2018-04-27T01:02:42.156Z,4.00
2018-04-27T01:03:42.183Z,4.00
2018-04-27T01:04:42.196Z,4.00
2018-04-27T01:05:42.277Z,4.00
2018-04-27T01:06:42.230Z,4.00
2018-04-27T01:07:42.242Z,4.00
2018-04-27T01:08:42.262Z,4.00
2018-04-27T01:09:42.284Z,4.00
2018-04-27T01:10:42.295Z,4.00
2018-04-27T01:11:42.371Z,4.00
2018-04-27T01:12:42.337Z,4.00
2018-04-27T01:13:42.351Z,4.00
2018-04-27T01:14:42.368Z,4.00
2018-04-27T01:15:42.386Z,4.00
2018-04-27T01:16:42.408Z,4.00
2018-04-27T01:17:42.526Z,4.00
2018-04-27T01:18:42.434Z,4.00
2018-04-27T01:19:42.455Z,4.00
2018-04-27T01:20:42.469Z,4.00
2018-04-27T01:21:42.492Z,4.00
2018-04-27T01:22:42.506Z,4.00
2018-04-27T01:23:42.596Z,4.00
2018-04-27T01:24:42.548Z,4.00
2018-04-27T01:25:42.554Z,4.00
2018-04-27T01:26:42.576Z,4.00
2018-04-27T01:27:42.593Z,4.00
2018-04-27T01:28:42.608Z,4.00
2018-04-27T01:29:42.657Z,4.00
2018-04-27T01:30:42.646Z,4.00
2018-04-27T01:31:42.662Z,4.00
2018-04-27T01:32:42.677Z,4.00
2018-04-27T01:33:42.693Z,4.00
2018-04-27T01:34:42.710Z,4.00
2018-04-27T01:35:42.767Z,4.00
2018-04-27T01:36:42.745Z,4.00
2018-04-27T01:37:42.761Z,4.00
2018-04-27T01:38:42.788Z,4.00
2018-04-27T01:39:42.796Z,4.00
2018-04-27T01:40:42.816Z,4.00
2018-04-27T01:41:42.866Z,4.00
2018-04-27T01:42:42.855Z,4.00
2018-04-27T01:43:42.870Z,4.00
2018-04-27T01:44:42.889Z,4.00
2018-04-27T01:45:42.903Z,4.00
2018-04-27T01:46:42.922Z,4.00
2018-04-27T01:47:42.936Z,4.00
2018-04-27T01:48:42.956Z,4.00
2018-04-27T01:49:42.977Z,4.00
2018-04-27T01:50:42.990Z,4.00
2018-04-27T01:51:43.005Z,4.00
2018-04-27T01:52:43.023Z,4.00
2018-04-27T01:53:43.091Z,4.00
2018-04-27T01:54:43.064Z,4.00
2018-04-27T01:55:43.074Z,4.00
2018-04-27T01:56:43.097Z,4.00
2018-04-27T01:57:43.113Z,4.00
2018-04-27T01:58:43.128Z,4.00
2018-04-27T01:59:43.256Z,4.00
2018-04-27T02:00:43.166Z,4.00
2018-04-27T02:01:43.185Z,4.00
2018-04-27T02:02:43.195Z,4.00
2018-04-27T02:03:43.216Z,4.00
2018-04-27T02:04:43.238Z,4.00
2018-04-27T02:05:43.321Z,4.00
2018-04-27T02:06:43.266Z,4.00
2018-04-27T02:07:43.291Z,4.00
2018-04-27T02:08:43.301Z,4.00
2018-04-27T02:09:43.316Z,4.00
2018-04-27T02:10:43.336Z,4.00
2018-04-27T02:11:43.403Z,4.00
2018-04-27T02:12:43.370Z,4.00
2018-04-27T02:13:43.387Z,4.00
2018-04-27T02:14:43.402Z,4.00
2018-04-27T02:15:43.422Z,4.00
2018-04-27T02:16:43.439Z,4.00
2018-04-27T02:17:43.480Z,4.00
2018-04-27T02:18:43.469Z,4.00
2018-04-27T02:19:43.484Z,4.00
2018-04-27T02:20:43.506Z,4.00
2018-04-27T02:21:43.523Z,4.00
2018-04-27T02:22:43.540Z,4.00
2018-04-27T02:23:43.560Z,4.00
2018-04-27T02:24:43.569Z,4.00
2018-04-27T02:25:43.589Z,4.00
2018-04-27T02:26:43.604Z,4.00
2018-04-27T02:27:43.622Z,4.00
2018-04-27T02:28:43.640Z,4.00
2018-04-27T02:29:43.658Z,4.00
2018-04-27T02:30:43.675Z,4.00
2018-04-27T02:31:43.690Z,4.00
2018-04-27T02:32:43.712Z,4.00
2018-04-27T02:33:43.724Z,4.00
2018-04-27T02:34:43.747Z,4.00
2018-04-27T02:35:43.762Z,4.00
2018-04-27T02:36:43.778Z,4.00
2018-04-27T02:37:43.791Z,4.00
2018-04-27T02:38:43.813Z,4.00
2018-04-27T02:39:43.829Z,4.00
2018-04-27T02:40:43.923Z,4.00
2018-04-27T02:41:43.864Z,4.00
2018-04-27T02:42:43.879Z,4.00
2018-04-27T02:43:43.895Z,4.00
2018-04-27T02:44:43.913Z,4.00
2018-04-27T02:45:43.933Z,4.00
2018-04-27T02:46:43.950Z,4.00
2018-04-27T02:47:43.961Z,4.00
2018-04-27T02:48:43.992Z,4.00
2018-04-27T02:49:43.999Z,4.00
2018-04-27T02:50:44.020Z,4.00
2018-04-27T02:51:44.034Z,4.00
2018-04-27T02:52:44.054Z,4.00
2018-04-27T02:53:44.065Z,4.00
2018-04-27T02:54:44.160Z,4.00
2018-04-27T02:55:44.096Z,4.00
2018-04-27T02:56:44.119Z,4.00
2018-04-27T02:57:44.136Z,4.00
2018-04-27T02:58:44.153Z,4.00
2018-04-27T02:59:44.221Z,4.00
2018-04-27T03:00:44.228Z,4.00
2018-04-27T03:01:44.201Z,4.00
2018-04-27T03:02:44.228Z,4.00
2018-04-27T03:03:44.236Z,4.00
2018-04-27T03:04:44.257Z,4.00
2018-04-27T03:05:44.270Z,4.00
2018-04-27T03:06:44.304Z,4.00
2018-04-27T03:07:44.307Z,4.00
2018-04-27T03:08:44.328Z,4.00
2018-04-27T03:09:44.341Z,4.00
2018-04-27T03:10:44.354Z,4.00
2018-04-27T03:11:44.379Z,4.00
2018-04-27T03:12:44.454Z,4.00
2018-04-27T03:13:44.404Z,4.00
2018-04-27T03:14:44.430Z,4.00
2018-04-27T03:15:44.446Z,4.00
2018-04-27T03:16:44.457Z,4.00
2018-04-27T03:17:44.480Z,4.00
2018-04-27T03:18:44.498Z,4.00
2018-04-27T03:19:44.508Z,4.00
2018-04-27T03:20:44.539Z,4.00
2018-04-27T03:21:44.545Z,4.00
2018-04-27T03:22:44.559Z,4.00
2018-04-27T03:23:44.704Z,4.00
2018-04-27T03:24:44.598Z,4.00
2018-04-27T03:25:44.613Z,4.00
2018-04-27T03:26:44.625Z,4.00
2018-04-27T03:27:44.657Z,4.00
2018-04-27T03:28:44.663Z,4.00
2018-04-27T03:29:44.678Z,4.00
2018-04-27T03:30:44.699Z,4.00
2018-04-27T03:31:44.714Z,4.00
2018-04-27T03:32:44.728Z,4.00
2018-04-27T03:33:44.750Z,4.00
2018-04-27T03:34:44.766Z,4.00
2018-04-27T03:35:44.786Z,4.00
2018-04-27T03:36:44.802Z,4.00
2018-04-27T03:37:44.823Z,4.00
2018-04-27T03:38:44.835Z,4.00
2018-04-27T03:39:44.849Z,4.00
2018-04-27T03:40:44.867Z,4.00
2018-04-27T03:41:44.889Z,4.00
2018-04-27T03:42:44.912Z,4.00
2018-04-27T03:43:44.917Z,4.00
2018-04-27T03:44:44.940Z,4.00
2018-04-27T03:45:44.953Z,4.00
2018-04-27T03:46:44.976Z,4.00
2018-04-27T03:47:44.992Z,4.00
2018-04-27T03:48:45.085Z,4.00
2018-04-27T03:49:45.022Z,4.00
2018-04-27T03:50:45.043Z,4.00
2018-04-27T03:51:45.058Z,4.00
2018-04-27T03:52:45.076Z,4.00
2018-04-27T03:53:45.144Z,4.00
2018-04-27T03:54:45.195Z,4.00
2018-04-27T03:55:45.126Z,4.00
2018-04-27T03:56:45.137Z,4.00
2018-04-27T03:57:45.162Z,4.00
2018-04-27T03:58:45.170Z,4.00
2018-04-27T03:59:45.244Z,4.00
2018-04-27T04:00:45.223Z,4.00
2018-04-27T04:01:45.225Z,4.00
2018-04-27T04:02:45.246Z,4.00
2018-04-27T04:03:45.261Z,4.00
2018-04-27T04:04:45.281Z,4.00
2018-04-27T04:05:45.347Z,4.00
2018-04-27T04:06:45.335Z,4.00
2018-04-27T04:07:45.328Z,4.00
2018-04-27T04:08:45.342Z,4.00
2018-04-27T04:09:45.359Z,4.00
2018-04-27T04:10:45.381Z,4.00
2018-04-27T04:11:45.448Z,4.00
2018-04-27T04:12:45.486Z,4.00
2018-04-27T04:13:45.431Z,4.00
2018-04-27T04:14:45.449Z,4.00
2018-04-27T04:15:45.464Z,4.00
2018-04-27T04:16:45.480Z,4.00
2018-04-27T04:17:45.511Z,4.00
2018-04-27T04:18:45.559Z,4.00
2018-04-27T04:19:45.529Z,4.00
2018-04-27T04:20:45.591Z,4.00
2018-04-27T04:21:45.568Z,4.00
2018-04-27T04:22:45.584Z,4.00
2018-04-27T04:23:45.608Z,4.00
2018-04-27T04:24:45.652Z,4.00
2018-04-27T04:25:45.630Z,4.00
2018-04-27T04:26:45.650Z,4.00
2018-04-27T04:27:45.672Z,4.00
2018-04-27T04:28:45.687Z,4.00
2018-04-27T04:29:45.707Z,4.00
2018-04-27T04:30:45.725Z,4.00
2018-04-27T04:31:45.747Z,4.00
2018-04-27T04:32:45.755Z,4.00
2018-04-27T04:33:45.776Z,4.00
2018-04-27T04:34:45.788Z,4.00
2018-04-27T04:35:45.811Z,4.00
2018-04-27T04:36:45.898Z,4.00
2018-04-27T04:37:45.838Z,4.00
2018-04-27T04:38:45.851Z,4.00
2018-04-27T04:39:45.873Z,4.00
2018-04-27T04:40:45.888Z,4.00
2018-04-27T04:41:45.906Z,4.00
2018-04-27T04:42:45.995Z,4.00
2018-04-27T04:43:45.950Z,4.00
2018-04-27T04:44:45.960Z,4.00
2018-04-27T04:45:45.974Z,4.00
2018-04-27T04:46:45.993Z,4.00
2018-04-27T04:47:46.009Z,4.00
2018-04-27T04:48:46.037Z,4.00
2018-04-27T04:49:46.040Z,4.00
2018-04-27T04:50:46.063Z,4.00
2018-04-27T04:51:46.078Z,4.00
2018-04-27T04:52:46.159Z,4.00
2018-04-27T04:53:46.113Z,4.00
2018-04-27T04:54:46.145Z,4.00
2018-04-27T04:55:46.139Z,4.00
2018-04-27T04:56:46.158Z,4.00
2018-04-27T04:57:46.179Z,4.00
2018-04-27T04:58:46.193Z,4.00
2018-04-27T04:59:46.256Z,4.00
2018-04-27T05:00:46.287Z,4.00
2018-04-27T05:01:46.241Z,4.00
2018-04-27T05:02:46.312Z,4.00
2018-04-27T05:03:46.276Z,4.00
2018-04-27T05:04:46.295Z,4.00
2018-04-27T05:05:46.366Z,4.00
2018-04-27T05:06:46.367Z,4.00
2018-04-27T05:07:46.344Z,4.00
2018-04-27T05:08:46.363Z,4.00
2018-04-27T05:09:46.376Z,4.00
2018-04-27T05:10:46.464Z,0.00
2018-04-27T05:11:46.465Z,0.00
2018-04-27T05:12:46.456Z,0.00
2018-04-27T05:13:46.446Z,0.00
2018-04-27T05:14:46.460Z,0.00
2018-04-27T05:15:46.480Z,0.00
2018-04-27T05:16:46.500Z,4.00
2018-04-27T05:17:46.517Z,4.00
2018-04-27T05:18:46.588Z,4.00
2018-04-27T05:19:46.552Z,4.00
2018-04-27T05:20:46.562Z,0.00
2018-04-27T05:21:46.579Z,4.00
2018-04-27T05:22:46.596Z,4.00
2018-04-27T05:23:46.619Z,4.00
2018-04-27T05:24:46.663Z,8.00
2018-04-27T05:25:46.648Z,8.00
2018-04-27T05:26:46.670Z,8.00
2018-04-27T05:27:46.688Z,8.00
2018-04-27T05:28:46.696Z,12.00
2018-04-27T05:29:46.868Z,12.00
2018-04-27T05:30:46.785Z,12.00
2018-04-27T05:31:46.750Z,16.00
2018-04-27T05:32:46.769Z,20.00
2018-04-27T05:33:46.788Z,24.00
2018-04-27T05:34:46.804Z,24.00
2018-04-27T05:35:46.870Z,28.00
2018-04-27T05:36:46.846Z,32.00
2018-04-27T05:37:46.858Z,40.00
2018-04-27T05:38:46.867Z,48.00
2018-04-27T05:39:46.886Z,52.00
2018-04-27T05:40:46.905Z,60.00
2018-04-27T05:41:46.971Z,68.00
2018-04-27T05:42:46.936Z,76.00
2018-04-27T05:43:46.952Z,88.00
2018-04-27T05:44:47.002Z,96.00
2018-04-27T05:45:46.985Z,108.00
2018-04-27T05:46:47.004Z,124.00
2018-04-27T05:47:47.071Z,136.00
2018-04-27T05:48:47.038Z,148.00
2018-04-27T05:49:47.058Z,164.00
2018-04-27T05:50:47.068Z,176.00
2018-04-27T05:51:47.083Z,196.00
2018-04-27T05:52:47.103Z,212.00
2018-04-27T05:53:47.123Z,228.00
2018-04-27T05:54:47.138Z,248.00
2018-04-27T05:55:47.148Z,268.00
2018-04-27T05:56:47.166Z,288.00
2018-04-27T05:57:47.183Z,304.00
2018-04-27T05:58:47.207Z,324.00
2018-04-27T05:59:47.217Z,348.00
2018-04-27T06:00:47.236Z,368.00
2018-04-27T06:01:47.256Z,392.00
2018-04-27T06:02:47.268Z,412.00
2018-04-27T06:03:47.285Z,436.00
2018-04-27T06:04:47.303Z,460.00
2018-04-27T06:05:47.323Z,504.00
2018-04-27T06:06:47.337Z,580.00
2018-04-27T06:07:47.356Z,708.00
2018-04-27T06:08:47.368Z,736.00
2018-04-27T06:09:47.384Z,684.00
2018-04-27T06:10:47.452Z,696.00
2018-04-27T06:11:47.418Z,692.00
2018-04-27T06:12:47.443Z,684.00
2018-04-27T06:13:47.457Z,712.00
2018-04-27T06:14:47.475Z,708.00
2018-04-27T06:15:47.485Z,724.00
2018-04-27T06:16:47.511Z,744.00
2018-04-27T06:17:47.524Z,768.00
2018-04-27T06:18:47.545Z,780.00
2018-04-27T06:19:47.560Z,804.00
2018-04-27T06:20:47.658Z,828.00
2018-04-27T06:21:47.597Z,852.00
2018-04-27T06:22:47.613Z,872.00
2018-04-27T06:23:47.624Z,896.00
2018-04-27T06:24:47.645Z,920.00
2018-04-27T06:25:47.753Z,940.00
2018-04-27T06:26:47.682Z,968.00
2018-04-27T06:27:47.699Z,988.00
2018-04-27T06:28:47.763Z,1012.00
2018-04-27T06:29:47.722Z,1032.00
2018-04-27T06:30:47.740Z,1052.00
2018-04-27T06:31:47.845Z,1076.00
2018-04-27T06:32:47.778Z,1100.00
2018-04-27T06:33:47.797Z,1124.00
2018-04-27T06:34:47.862Z,1152.00
2018-04-27T06:35:47.831Z,1168.00
2018-04-27T06:36:47.846Z,1192.00
2018-04-27T06:37:47.860Z,1220.00
2018-04-27T06:38:47.881Z,1244.00
2018-04-27T06:39:47.894Z,1272.00
2018-04-27T06:40:47.962Z,1300.00
2018-04-27T06:41:47.945Z,1328.00
2018-04-27T06:42:47.954Z,1364.00
2018-04-27T06:43:47.964Z,1408.00
2018-04-27T06:44:47.978Z,1448.00
2018-04-27T06:45:48.004Z,1504.00
2018-04-27T06:46:48.069Z,1556.00
2018-04-27T06:47:48.102Z,1612.00
2018-04-27T06:48:48.050Z,1684.00
2018-04-27T06:49:48.077Z,1784.00
2018-04-27T06:50:48.081Z,1932.00
2018-04-27T06:51:48.098Z,2148.00
2018-04-27T06:52:48.118Z,2488.00
2018-04-27T06:53:48.145Z,2956.00
2018-04-27T06:54:48.153Z,3428.00
2018-04-27T06:55:48.166Z,3796.00
2018-04-27T06:56:48.189Z,4020.00
2018-04-27T06:57:48.206Z,4112.00
2018-04-27T06:58:48.220Z,4260.00
2018-04-27T06:59:48.301Z,4360.00
2018-04-27T07:00:48.254Z,4456.00
2018-04-27T07:01:48.277Z,4576.00
2018-04-27T07:02:48.286Z,4700.00
2018-04-27T07:03:48.309Z,4812.00
2018-04-27T07:04:48.324Z,4856.00
2018-04-27T07:05:48.390Z,5064.00
2018-04-27T07:06:48.390Z,5168.00
2018-04-27T07:07:48.377Z,5272.00
2018-04-27T07:08:48.399Z,5416.00
2018-04-27T07:09:48.411Z,5608.00
2018-04-27T07:10:48.431Z,5720.00
2018-04-27T07:11:48.519Z,5676.00
2018-04-27T07:12:48.466Z,5668.00
2018-04-27T07:13:48.486Z,5848.00
2018-04-27T07:14:48.505Z,5888.00
2018-04-27T07:15:48.529Z,6280.00
2018-04-27T07:16:48.768Z,6468.00
2018-04-27T07:17:48.602Z,6336.00
2018-04-27T07:18:48.572Z,2684.00
2018-04-27T07:19:48.590Z,3484.00
2018-04-27T07:20:48.609Z,3712.00
2018-04-27T07:21:48.633Z,3832.00
2018-04-27T07:22:48.702Z,2596.00
2018-04-27T07:23:48.693Z,2500.00
2018-04-27T07:24:48.681Z,2944.00
2018-04-27T07:25:48.716Z,3140.00
2018-04-27T07:26:48.723Z,3828.00
2018-04-27T07:27:48.740Z,3288.00
2018-04-27T07:28:48.811Z,3260.00
2018-04-27T07:29:48.792Z,3460.00
2018-04-27T07:30:48.798Z,3108.00
2018-04-27T07:31:48.815Z,2860.00
2018-04-27T07:32:48.833Z,2764.00
2018-04-27T07:33:48.849Z,2600.00
2018-04-27T07:34:48.870Z,2560.00
2018-04-27T07:35:48.892Z,2816.00
2018-04-27T07:36:48.906Z,3132.00
2018-04-27T07:37:48.917Z,4788.00
2018-04-27T07:38:48.965Z,3460.00
2018-04-27T07:39:48.962Z,4168.00
2018-04-27T07:40:48.978Z,4956.00
2018-04-27T07:41:49.000Z,5452.00
2018-04-27T07:42:49.018Z,3524.00
2018-04-27T07:43:49.031Z,4976.00
2018-04-27T07:44:49.049Z,4132.00
2018-04-27T07:45:49.066Z,3772.00
2018-04-27T07:46:49.086Z,9816.00
2018-04-27T07:47:49.128Z,10076.00
2018-04-27T07:48:49.117Z,9304.00
2018-04-27T07:49:49.138Z,4704.00
2018-04-27T07:50:49.157Z,4560.00
2018-04-27T07:51:49.174Z,6008.00
2018-04-27T07:52:49.196Z,5872.00
2018-04-27T07:53:49.239Z,5308.00
2018-04-27T07:54:49.229Z,4120.00
2018-04-27T07:55:49.246Z,11188.00
2018-04-27T07:56:49.273Z,4232.00
2018-04-27T07:57:49.287Z,4220.00
2018-04-27T07:58:49.299Z,3684.00
2018-04-27T07:59:49.390Z,5200.00
2018-04-27T08:00:49.338Z,9348.00
2018-04-27T08:01:49.355Z,3728.00
2018-04-27T08:02:49.376Z,4516.00
2018-04-27T08:03:49.391Z,3552.00
2018-04-27T08:04:49.413Z,3440.00
2018-04-27T08:05:49.443Z,3304.00
2018-04-27T08:06:49.458Z,3128.00
2018-04-27T08:07:49.469Z,3576.00
2018-04-27T08:08:49.531Z,3704.00
2018-04-27T08:09:49.519Z,3696.00
2018-04-27T08:10:49.533Z,3604.00
2018-04-27T08:11:49.606Z,3384.00
2018-04-27T08:12:49.560Z,3208.00
2018-04-27T08:13:49.584Z,2856.00
2018-04-27T08:14:49.601Z,2792.00
2018-04-27T08:15:49.615Z,2936.00
2018-04-27T08:16:49.645Z,3104.00
2018-04-27T08:17:49.660Z,3304.00
2018-04-27T08:18:49.675Z,3156.00
2018-04-27T08:19:49.696Z,2924.00
2018-04-27T08:20:49.710Z,2824.00
2018-04-27T08:21:49.728Z,2896.00
2018-04-27T08:22:49.753Z,3020.00
2018-04-27T08:23:49.810Z,3288.00
2018-04-27T08:24:49.815Z,3420.00
2018-04-27T08:25:49.801Z,3352.00
2018-04-27T08:26:49.823Z,3324.00
2018-04-27T08:27:49.842Z,3272.00
2018-04-27T08:28:49.860Z,3440.00
2018-04-27T08:29:49.881Z,3516.00
2018-04-27T08:31:49.918Z,3668.00
2018-04-27T08:32:49.940Z,3640.00
2018-04-27T08:33:49.957Z,3908.00
2018-04-27T08:34:50.026Z,3912.00
2018-04-27T08:35:50.000Z,3932.00
2018-04-27T08:36:50.007Z,3600.00
2018-04-27T08:37:50.029Z,3436.00
2018-04-27T08:38:50.054Z,3236.00
2018-04-27T08:39:50.068Z,3124.00
2018-04-27T08:40:50.091Z,3080.00
2018-04-27T08:41:50.104Z,3216.00
2018-04-27T08:42:50.127Z,3420.00
2018-04-27T08:43:50.195Z,3408.00
2018-04-27T08:44:50.161Z,3304.00
2018-04-27T08:45:50.178Z,3152.00
2018-04-27T08:46:50.247Z,3096.00
2018-04-27T08:47:50.221Z,3052.00
2018-04-27T08:48:50.241Z,3032.00
2018-04-27T08:49:50.255Z,2936.00
2018-04-27T08:50:50.272Z,2844.00
2018-04-27T08:51:50.300Z,2800.00
2018-04-27T08:52:50.369Z,2728.00
2018-04-27T08:53:50.366Z,2548.00
2018-04-27T08:54:50.352Z,2380.00
2018-04-27T08:55:50.365Z,2252.00
2018-04-27T08:56:50.391Z,2228.00
2018-04-27T08:57:50.407Z,2228.00
2018-04-27T08:58:50.431Z,2252.00
2018-04-27T08:59:50.447Z,2260.00
2018-04-27T09:00:50.467Z,2256.00
2018-04-27T09:01:50.487Z,2244.00
2018-04-27T09:02:50.598Z,2248.00
2018-04-27T09:03:50.517Z,2320.00
2018-04-27T09:04:50.541Z,2216.00
2018-04-27T09:05:50.559Z,2284.00
2018-04-27T09:06:50.576Z,2368.00
2018-04-27T09:07:50.591Z,2432.00
2018-04-27T09:08:50.611Z,2444.00
2018-04-27T09:09:50.633Z,2456.00
2018-04-27T09:10:50.653Z,2452.00
2018-04-27T09:11:50.673Z,2408.00
2018-04-27T09:12:50.691Z,2356.00
2018-04-27T09:13:50.708Z,2236.00
2018-04-27T09:14:50.731Z,2240.00
2018-04-27T09:15:50.806Z,2276.00
2018-04-27T09:16:50.763Z,2308.00
2018-04-27T09:17:50.790Z,2416.00
2018-04-27T09:18:50.803Z,2520.00
2018-04-27T09:19:50.822Z,2980.00
2018-04-27T09:20:50.836Z,3452.00
2018-04-27T09:21:50.908Z,3960.00
2018-04-27T09:22:50.876Z,4484.00
2018-04-27T09:23:50.895Z,4920.00
2018-04-27T09:24:50.915Z,5488.00
2018-04-27T09:25:50.930Z,6144.00
2018-04-27T09:26:50.983Z,8984.00
2018-04-27T09:27:51.026Z,11384.00
2018-04-27T09:28:51.039Z,7420.00
2018-04-27T09:29:51.011Z,15744.00
2018-04-27T09:30:51.030Z,7888.00
2018-04-27T09:31:51.048Z,11632.00
2018-04-27T09:32:51.061Z,11512.00
2018-04-27T09:33:51.174Z,13656.00
2018-04-27T09:34:51.101Z,16768.00
2018-04-27T09:35:51.120Z,7696.00
2018-04-27T09:36:51.142Z,7164.00
2018-04-27T09:37:51.159Z,11332.00
2018-04-27T09:38:51.177Z,8332.00
2018-04-27T09:39:51.264Z,7548.00
2018-04-27T09:40:51.222Z,5492.00
2018-04-27T09:41:51.237Z,5276.00
2018-04-27T09:42:51.263Z,5536.00
2018-04-27T09:43:51.282Z,16768.00
2018-04-27T09:44:51.299Z,16160.00
2018-04-27T09:45:51.319Z,6652.00
2018-04-27T09:46:51.398Z,6084.00
2018-04-27T09:47:51.359Z,12228.00
2018-04-27T09:48:51.382Z,8644.00
2018-04-27T09:49:51.400Z,13488.00
2018-04-27T09:50:51.515Z,15936.00
2018-04-27T09:51:51.441Z,16352.00
2018-04-27T09:52:51.467Z,17408.00
2018-04-27T09:53:51.483Z,13688.00
2018-04-27T09:54:51.510Z,6408.00
2018-04-27T09:55:51.529Z,13268.00
2018-04-27T09:56:51.579Z,8912.00
2018-04-27T09:57:51.568Z,15616.00
2018-04-27T09:58:51.644Z,15104.00
2018-04-27T09:59:51.621Z,15776.00
2018-04-27T10:00:51.634Z,12960.00
2018-04-27T10:01:51.661Z,4772.00
2018-04-27T10:02:51.678Z,5348.00
2018-04-27T10:03:51.697Z,13812.00
2018-04-27T10:04:51.776Z,4128.00
2018-04-27T10:05:51.748Z,4300.00
2018-04-27T10:06:51.762Z,7088.00
2018-04-27T10:07:51.804Z,6320.00
2018-04-27T10:08:51.808Z,6960.00
2018-04-27T10:09:51.830Z,17280.00
2018-04-27T10:10:51.850Z,18432.00
2018-04-27T10:11:51.876Z,7660.00
2018-04-27T10:12:51.902Z,8184.00
2018-04-27T10:13:51.993Z,7416.00
2018-04-27T10:14:51.939Z,11316.00
2018-04-27T10:15:51.963Z,6396.00
2018-04-27T10:16:52.034Z,6152.00
2018-04-27T10:17:52.005Z,6288.00
2018-04-27T10:18:52.033Z,4572.00
2018-04-27T10:19:52.049Z,4500.00
2018-04-27T10:20:52.074Z,4684.00
2018-04-27T10:21:52.098Z,4684.00
2018-04-27T10:22:52.116Z,4396.00
2018-04-27T10:23:52.141Z,4096.00
2018-04-27T10:24:52.163Z,3848.00
2018-04-27T10:25:52.179Z,3916.00
2018-04-27T10:26:52.201Z,4332.00
2018-04-27T10:27:52.281Z,4884.00
2018-04-27T10:28:52.246Z,4960.00
2018-04-27T10:29:52.270Z,4536.00
2018-04-27T10:30:52.369Z,4268.00
2018-04-27T10:31:52.313Z,4084.00
2018-04-27T10:32:52.337Z,4060.00
2018-04-27T10:33:52.354Z,4304.00
2018-04-27T10:34:52.382Z,4132.00
2018-04-27T10:35:52.396Z,4188.00
2018-04-27T10:36:52.462Z,4384.00
2018-04-27T10:37:52.436Z,4800.00
2018-04-27T10:38:52.463Z,5576.00
2018-04-27T10:39:52.474Z,6516.00
2018-04-27T10:40:52.498Z,10416.00
2018-04-27T10:41:52.521Z,13868.00
2018-04-27T10:42:52.563Z,7796.00
2018-04-27T10:43:52.565Z,6852.00
2018-04-27T10:44:52.646Z,7716.00
2018-04-27T10:45:52.604Z,8112.00
2018-04-27T10:46:52.627Z,7672.00
2018-04-27T10:47:52.641Z,6312.00
2018-04-27T10:48:52.691Z,5940.00
2018-04-27T10:49:52.685Z,6828.00
2018-04-27T10:50:52.703Z,7532.00
2018-04-27T10:51:52.737Z,8156.00
2018-04-27T10:52:52.753Z,12492.00
2018-04-27T10:53:52.767Z,7680.00
2018-04-27T10:54:52.806Z,5948.00
2018-04-27T10:55:52.815Z,5376.00
2018-04-27T10:56:52.829Z,5372.00
2018-04-27T10:57:52.853Z,5864.00
2018-04-27T10:58:52.876Z,6224.00
2018-04-27T10:59:52.894Z,5956.00
2018-04-27T11:00:52.916Z,5972.00
2018-04-27T11:01:52.945Z,6504.00
2018-04-27T11:02:52.956Z,6928.00
2018-04-27T11:03:52.981Z,6028.00
2018-04-27T11:04:52.999Z,5520.00
2018-04-27T11:05:53.025Z,5192.00
2018-04-27T11:06:53.044Z,4816.00
2018-04-27T11:07:53.096Z,4476.00
2018-04-27T11:08:53.086Z,4312.00
2018-04-27T11:09:53.110Z,4224.00
2018-04-27T11:10:53.189Z,4040.00
2018-04-27T11:11:53.154Z,3800.00
2018-04-27T11:12:53.174Z,3804.00
2018-04-27T11:13:53.246Z,3868.00
2018-04-27T11:14:53.214Z,4068.00
2018-04-27T11:15:53.239Z,4328.00
2018-04-27T11:16:53.567Z,4552.00
2018-04-27T11:17:53.285Z,4836.00
2018-04-27T11:18:53.299Z,5388.00
2018-04-27T11:19:53.320Z,5840.00
2018-04-27T11:20:53.335Z,6096.00
2018-04-27T11:21:53.361Z,5628.00
2018-04-27T11:22:53.379Z,5972.00
2018-04-27T11:23:53.397Z,6140.00
2018-04-27T11:24:53.421Z,16128.00
2018-04-27T11:25:53.447Z,15328.00
2018-04-27T11:26:53.462Z,8572.00
2018-04-27T11:27:53.482Z,7476.00
2018-04-27T11:28:53.499Z,7580.00
2018-04-27T11:29:53.522Z,7572.00
2018-04-27T11:30:53.539Z,7884.00
2018-04-27T11:31:53.599Z,9564.00
2018-04-27T11:32:53.584Z,6864.00
2018-04-27T11:33:53.603Z,6440.00
2018-04-27T11:34:53.629Z,6232.00
2018-04-27T11:35:53.651Z,6152.00
2018-04-27T11:36:53.669Z,6288.00
2018-04-27T11:37:53.737Z,6612.00
2018-04-27T11:38:53.714Z,6480.00
2018-04-27T11:39:53.734Z,5932.00
2018-04-27T11:40:53.754Z,5356.00
2018-04-27T11:41:53.777Z,5044.00
2018-04-27T11:42:53.794Z,4916.00
2018-04-27T11:43:53.891Z,5180.00
2018-04-27T11:44:53.913Z,5344.00
2018-04-27T11:45:53.856Z,6112.00
2018-04-27T11:46:53.884Z,6944.00
2018-04-27T11:47:53.897Z,8328.00
2018-04-27T11:48:53.925Z,8164.00
2018-04-27T11:49:53.939Z,11872.00
2018-04-27T11:50:53.964Z,7016.00
2018-04-27T11:51:53.979Z,6492.00
2018-04-27T11:52:54.000Z,5980.00
2018-04-27T11:53:54.021Z,5848.00
2018-04-27T11:54:54.043Z,6068.00
2018-04-27T11:55:54.068Z,6968.00
2018-04-27T11:56:54.095Z,7680.00
2018-04-27T11:57:54.108Z,18496.00
2018-04-27T11:58:54.129Z,7012.00
2018-04-27T11:59:54.148Z,7900.00
2018-04-27T12:00:54.169Z,7420.00
2018-04-27T12:01:54.194Z,7248.00
2018-04-27T12:02:54.214Z,6876.00
2018-04-27T12:03:54.228Z,6784.00
2018-04-27T12:04:54.253Z,7048.00
2018-04-27T12:05:54.276Z,6996.00
2018-04-27T12:06:54.297Z,7860.00
2018-04-27T12:07:54.320Z,11696.00
2018-04-27T12:08:54.341Z,7276.00
2018-04-27T12:09:54.371Z,6620.00
2018-04-27T12:10:54.383Z,6448.00
2018-04-27T12:11:54.403Z,11668.00
2018-04-27T12:12:54.422Z,19008.00
2018-04-27T12:13:54.444Z,11556.00
2018-04-27T12:14:54.462Z,11548.00
2018-04-27T12:15:54.486Z,18752.00
2018-04-27T12:16:54.550Z,17408.00
2018-04-27T12:17:54.535Z,8660.00
2018-04-27T12:18:54.556Z,7460.00
2018-04-27T12:19:54.569Z,19104.00
2018-04-27T12:20:54.597Z,20128.00
2018-04-27T12:21:54.621Z,8120.00
2018-04-27T12:22:54.653Z,13556.00
2018-04-27T12:23:54.664Z,19616.00
2018-04-27T12:24:54.684Z,13448.00
2018-04-27T12:25:54.713Z,10728.00
2018-04-27T12:26:54.730Z,9752.00
2018-04-27T12:27:54.747Z,7448.00
2018-04-27T12:28:54.869Z,6504.00
2018-04-27T12:29:54.795Z,6068.00
2018-04-27T12:30:54.902Z,6152.00
2018-04-27T12:31:54.964Z,6240.00
2018-04-27T12:32:54.864Z,5832.00
2018-04-27T12:33:54.935Z,5572.00
2018-04-27T12:34:54.901Z,5808.00
2018-04-27T12:35:54.933Z,7736.00
2018-04-27T12:36:54.951Z,14764.00
2018-04-27T12:37:54.973Z,20288.00